Time;durP1;ratioP1;P1;durP2;ratioP2;P2;SDS_P1;SDS_P2;PMS_P1;PMS_P2;Temp;Humidity;BMP_temperature;BMP_pressure;BME280_temperature;BME280_humidity;BME280_pressure;Samples;Min_cycle;Max_cycle;Signal;HPM_P1;HPM_P2
2022/04/27 00:03:12;;;;;;;3.78;3.15;;;;;;;;;;10531924;28;20120;-70
2022/04/27 00:08:13;;;;;;;8.75;3.40;;;;;;;;;;10549138;28;20039;-70
2022/04/27 00:13:16;;;;;;;4.70;3.93;;;;;;;;;;10567005;28;20062;-70
2022/04/27 00:18:16;;;;;;;4.20;3.40;;;;;;;;;;10552612;28;20027;-69
2022/04/27 00:23:17;;;;;;;8.00;2.85;;;;;;;;;;10556324;28;20039;-70
2022/04/27 00:28:17;;;;;;;5.90;2.90;;;;;;;;;;10556558;28;20084;-73
2022/04/27 00:33:17;;;;;;;5.18;2.85;;;;;;;;;;10555685;28;20505;-70
2022/04/27 00:38:18;;;;;;;3.70;3.03;;;;;;;;;;10553012;28;20514;-75
2022/04/27 00:43:39;;;;;;;4.78;3.03;;;;;;;;;;10555277;28;20428;-73
2022/04/27 00:48:39;;;;;;;5.32;3.25;;;;;;;;;;10552954;28;20502;-75
2022/04/27 00:53:40;;;;;;;5.10;3.00;;;;;;;;;;10554722;28;20034;-74
2022/04/27 00:58:41;;;;;;;5.35;3.67;;;;;;;;;;10554431;28;20031;-73
2022/04/27 01:03:41;;;;;;;3.50;3.20;;;;;;;;;;10572655;28;20027;-71
2022/04/27 01:08:42;;;;;;;7.10;3.80;;;;;;;;;;10552517;28;20028;-71
2022/04/27 01:13:42;;;;;;;5.20;3.10;;;;;;;;;;10571080;28;20056;-73
2022/04/27 01:18:43;;;;;;;6.05;3.65;;;;;;;;;;10554619;28;20020;-71
2022/04/27 01:23:43;;;;;;;4.10;3.10;;;;;;;;;;10572493;28;20016;-74
2022/04/27 01:28:45;;;;;;;4.25;3.38;;;;;;;;;;10553695;28;20100;-71
2022/04/27 01:33:46;;;;;;;6.15;3.92;;;;;;;;;;10553026;28;20032;-74
2022/04/27 01:38:47;;;;;;;5.32;3.92;;;;;;;;;;10553302;28;20411;-71
2022/04/27 01:43:47;;;;;;;6.20;3.85;;;;;;;;;;10552714;28;20032;-70
2022/04/27 01:48:48;;;;;;;6.43;3.97;;;;;;;;;;10552831;28;20043;-71
2022/04/27 01:59:09;;;;;;;7.15;3.88;;;;;;;;;;10567611;28;20110;-76
2022/04/27 02:04:09;;;;;;;8.65;4.28;;;;;;;;;;10550654;28;20039;-71
2022/04/27 02:09:09;;;;;;;12.07;4.63;;;;;;;;;;10551854;28;20031;-72
2022/04/27 02:14:10;;;;;;;4.93;3.97;;;;;;;;;;10553646;28;20384;-70
2022/04/27 02:19:10;;;;;;;5.50;3.97;;;;;;;;;;10553045;28;20027;-74
2022/04/27 02:24:10;;;;;;;9.00;4.82;;;;;;;;;;10552948;28;20277;-72
2022/04/27 02:29:11;;;;;;;7.93;3.92;;;;;;;;;;10552574;28;20026;-73
2022/04/27 02:34:11;;;;;;;4.57;4.00;;;;;;;;;;10552492;28;20033;-72
2022/04/27 02:39:11;;;;;;;5.05;3.92;;;;;;;;;;10535004;28;20026;-71
2022/04/27 02:44:11;;;;;;;4.30;3.70;;;;;;;;;;10551838;28;20046;-71
2022/04/27 02:54:31;;;;;;;7.82;4.20;;;;;;;;;;10555189;28;20035;-71
2022/04/27 02:59:31;;;;;;;8.63;4.63;;;;;;;;;;10534973;28;20023;-73
2022/04/27 03:04:31;;;;;;;5.50;4.97;;;;;;;;;;10550776;28;20038;-70
2022/04/27 03:09:32;;;;;;;8.37;4.83;;;;;;;;;;10551357;28;20024;-71
2022/04/27 03:14:32;;;;;;;6.38;4.55;;;;;;;;;;10569760;28;20027;-69
2022/04/27 03:19:32;;;;;;;8.77;4.93;;;;;;;;;;10551556;28;20403;-69
2022/04/27 03:24:33;;;;;;;8.68;7.00;;;;;;;;;;10551649;28;20019;-74
2022/04/27 03:29:33;;;;;;;11.15;6.90;;;;;;;;;;10522523;28;20019;-74
2022/04/27 03:34:33;;;;;;;10.38;7.75;;;;;;;;;;10526787;28;20051;-74
2022/04/27 03:39:34;;;;;;;16.48;8.77;;;;;;;;;;10511093;28;20024;-71
2022/04/27 03:44:34;;;;;;;11.90;8.48;;;;;;;;;;10526676;28;20032;-72
2022/04/27 03:49:34;;;;;;;13.07;9.57;;;;;;;;;;10522394;28;20174;-73
2022/04/27 03:54:35;;;;;;;13.65;10.40;;;;;;;;;;10529384;28;20039;-71
2022/04/27 03:59:35;;;;;;;18.13;9.20;;;;;;;;;;10508226;28;20111;-75
2022/04/27 04:04:35;;;;;;;20.75;9.82;;;;;;;;;;10525853;28;20047;-72
2022/04/27 04:09:35;;;;;;;12.25;8.48;;;;;;;;;;10532793;28;20065;-76
2022/04/27 04:14:36;;;;;;;12.30;8.23;;;;;;;;;;10523788;28;20036;-72
2022/04/27 04:19:37;;;;;;;13.73;9.95;;;;;;;;;;10515314;28;20103;-73
2022/04/27 04:24:37;;;;;;;15.70;7.95;;;;;;;;;;10514461;28;20117;-69
2022/04/27 04:29:38;;;;;;;13.10;8.68;;;;;;;;;;10497276;28;20024;-72
2022/04/27 04:34:38;;;;;;;17.50;9.13;;;;;;;;;;10530862;28;20020;-71
2022/04/27 04:39:38;;;;;;;17.55;9.02;;;;;;;;;;10524195;28;20035;-72
2022/04/27 04:44:38;;;;;;;19.05;9.90;;;;;;;;;;10531340;28;20069;-70
2022/04/27 04:49:39;;;;;;;14.85;7.30;;;;;;;;;;10504681;28;20049;-70
2022/04/27 04:54:39;;;;;;;10.05;7.47;;;;;;;;;;10487228;28;20458;-76
2022/04/27 04:59:39;;;;;;;14.55;7.75;;;;;;;;;;10484783;28;20020;-72
2022/04/27 05:04:39;;;;;;;19.45;9.50;;;;;;;;;;10518857;28;20166;-71
2022/04/27 05:09:40;;;;;;;15.23;6.10;;;;;;;;;;10527788;28;20403;-72
2022/04/27 05:14:40;;;;;;;16.37;7.50;;;;;;;;;;10519514;28;20605;-74
2022/04/27 05:19:40;;;;;;;14.93;5.63;;;;;;;;;;10488404;28;20170;-72
2022/04/27 05:24:41;;;;;;;10.73;5.10;;;;;;;;;;10514302;28;20491;-73
2022/04/27 05:34:59;;;;;;;10.13;5.53;;;;;;;;;;10531180;28;20027;-71
2022/04/27 05:40:00;;;;;;;17.88;7.60;;;;;;;;;;10530440;28;20491;-71
2022/04/27 05:45:00;;;;;;;22.70;7.07;;;;;;;;;;10528314;28;20427;-72
2022/04/27 05:50:01;;;;;;;15.07;6.18;;;;;;;;;;10554022;28;20020;-73
2022/04/27 05:55:01;;;;;;;16.92;8.50;;;;;;;;;;10554221;28;20019;-72
2022/04/27 06:00:01;;;;;;;17.90;5.03;;;;;;;;;;10553768;28;20348;-72
2022/04/27 06:05:02;;;;;;;7.47;5.60;;;;;;;;;;10553699;28;20475;-76
2022/04/27 06:10:06;;;;;;;16.87;7.57;;;;;;;;;;10553756;28;20023;-72
2022/04/27 06:15:10;;;;;;;9.70;5.35;;;;;;;;;;10552668;28;20031;-72
2022/04/27 06:20:11;;;;;;;11.57;4.50;;;;;;;;;;10551489;28;20110;-72
2022/04/27 06:25:11;;;;;;;8.47;5.90;;;;;;;;;;10522963;28;20474;-73
2022/04/27 06:30:11;;;;;;;11.40;4.88;;;;;;;;;;10526973;28;20258;-73
2022/04/27 06:35:13;;;;;;;19.40;4.70;;;;;;;;;;10510311;28;20035;-72
2022/04/27 06:40:13;;;;;;;13.73;4.43;;;;;;;;;;10539412;28;20023;-73
2022/04/27 06:45:13;;;;;;;19.30;4.03;;;;;;;;;;10551499;28;20027;-73
2022/04/27 06:50:14;;;;;;;10.40;3.80;;;;;;;;;;10551564;28;20027;-75
2022/04/27 06:55:16;;;;;;;11.05;4.10;;;;;;;;;;10552052;28;20016;-72
2022/04/27 07:00:16;;;;;;;8.00;3.78;;;;;;;;;;10551999;28;20114;-74
2022/04/27 07:05:17;;;;;;;16.80;4.43;;;;;;;;;;10551115;28;20030;-72
2022/04/27 07:10:19;;;;;;;7.15;3.72;;;;;;;;;;10551109;28;20454;-73
2022/04/27 07:15:19;;;;;;;8.30;3.65;;;;;;;;;;10569486;28;20103;-72
2022/04/27 07:20:20;;;;;;;8.50;3.13;;;;;;;;;;10551011;28;20359;-75
2022/04/27 07:25:20;;;;;;;8.90;3.22;;;;;;;;;;10551244;28;20609;-71
2022/04/27 07:30:23;;;;;;;4.47;2.60;;;;;;;;;;10549872;28;20020;-72
2022/04/27 07:35:23;;;;;;;12.50;3.03;;;;;;;;;;10550836;28;20537;-75
2022/04/27 07:40:23;;;;;;;4.90;2.53;;;;;;;;;;10520143;28;20445;-75
2022/04/27 07:45:24;;;;;;;6.63;2.97;;;;;;;;;;10524390;28;20109;-72
2022/04/27 07:50:24;;;;;;;4.57;2.40;;;;;;;;;;10525550;28;20051;-72
2022/04/27 07:55:24;;;;;;;8.10;3.70;;;;;;;;;;10508367;28;20031;-76
2022/04/27 08:00:25;;;;;;;6.20;2.90;;;;;;;;;;10525560;28;20020;-76
2022/04/27 08:05:26;;;;;;;5.65;2.90;;;;;;;;;;10532173;28;20031;-71
2022/04/27 08:10:26;;;;;;;6.57;2.47;;;;;;;;;;10550647;28;20020;-72
2022/04/27 08:15:26;;;;;;;10.53;2.60;;;;;;;;;;10569116;28;20024;-71
2022/04/27 08:25:48;;;;;;;9.15;2.58;;;;;;;;;;10568882;28;20459;-75
2022/04/27 08:30:49;;;;;;;9.40;3.17;;;;;;;;;;10568463;28;20057;-78
2022/04/27 08:35:49;;;;;;;4.43;2.40;;;;;;;;;;10567892;28;20030;-76
2022/04/27 08:40:49;;;;;;;8.25;2.55;;;;;;;;;;10572589;28;20020;-71
2022/04/27 08:45:50;;;;;;;10.88;2.20;;;;;;;;;;10556673;28;20044;-71
2022/04/27 08:50:51;;;;;;;8.02;2.88;;;;;;;;;;10556658;28;20110;-72
2022/04/27 08:55:53;;;;;;;5.72;2.13;;;;;;;;;;10556199;28;20082;-71
2022/04/27 09:00:53;;;;;;;11.80;6.78;;;;;;;;;;10556246;28;20019;-69
2022/04/27 09:06:01;;;;;;;7.60;2.40;;;;;;;;;;10520022;28;20020;-71
2022/04/27 09:11:18;;;;;;;9.30;2.15;;;;;;;;;;10513564;28;20069;-76
2022/04/27 09:16:20;;;;;;;6.47;2.33;;;;;;;;;;10514430;28;20032;-72
2022/04/27 09:21:21;;;;;;;6.82;1.80;;;;;;;;;;10531290;28;20024;-75
2022/04/27 09:26:22;;;;;;;5.60;1.63;;;;;;;;;;10530192;28;20483;-71
2022/04/27 09:31:30;;;;;;;5.70;1.70;;;;;;;;;;10512725;28;20032;-71
2022/04/27 09:36:30;;;;;;;8.23;2.70;;;;;;;;;;10512878;28;20027;-76
2022/04/27 09:41:41;;;;;;;3.70;1.95;;;;;;;;;;10529939;28;20028;-71
2022/04/27 09:46:44;;;;;;;4.68;1.98;;;;;;;;;;10512242;28;20052;-71
2022/04/27 09:51:47;;;;;;;7.60;2.88;;;;;;;;;;10511573;28;20023;-76
2022/04/27 09:56:48;;;;;;;4.20;1.38;;;;;;;;;;10530555;28;20043;-72
2022/04/27 10:01:53;;;;;;;6.25;1.67;;;;;;;;;;10511749;28;20035;-72
2022/04/27 10:06:56;;;;;;;7.35;1.98;;;;;;;;;;10535565;28;20068;-71
2022/04/27 10:12:00;;;;;;;3.38;1.58;;;;;;;;;;10553357;28;20031;-71
2022/04/27 10:17:00;;;;;;;6.30;1.63;;;;;;;;;;10529759;28;20024;-77
2022/04/27 10:22:04;;;;;;;5.15;1.50;;;;;;;;;;10552941;28;20016;-73
2022/04/27 10:27:21;;;;;;;6.40;1.65;;;;;;;;;;10536005;28;20020;-72
2022/04/27 10:32:35;;;;;;;4.40;1.90;;;;;;;;;;10552043;28;20023;-75
2022/04/27 10:37:50;;;;;;;4.60;1.35;;;;;;;;;;10552127;28;20027;-73
2022/04/27 10:42:50;;;;;;;6.65;1.92;;;;;;;;;;10534839;28;20088;-75
2022/04/27 10:47:51;;;;;;;14.75;2.13;;;;;;;;;;10551988;28;20109;-75
2022/04/27 10:52:53;;;;;;;12.87;1.83;;;;;;;;;;10552293;28;20423;-72
2022/04/27 10:58:10;;;;;;;4.55;1.50;;;;;;;;;;10551653;28;20023;-75
2022/04/27 11:03:16;;;;;;;4.43;1.70;;;;;;;;;;10533874;28;20089;-73
2022/04/27 11:08:21;;;;;;;7.95;1.77;;;;;;;;;;10535002;28;20067;-71
2022/04/27 11:13:27;;;;;;;6.03;1.90;;;;;;;;;;10551006;28;20020;-75
2022/04/27 11:18:46;;;;;;;3.70;1.67;;;;;;;;;;10569746;28;20114;-76
2022/04/27 11:23:47;;;;;;;3.80;2.55;;;;;;;;;;10550768;28;20024;-73
2022/04/27 11:28:47;;;;;;;5.05;2.08;;;;;;;;;;10569312;28;20023;-72
2022/04/27 11:33:48;;;;;;;5.78;2.22;;;;;;;;;;10550707;28;20421;-71
2022/04/27 11:38:49;;;;;;;2.72;1.92;;;;;;;;;;10549887;28;20376;-71
2022/04/27 11:43:50;;;;;;;3.83;1.90;;;;;;;;;;10536660;28;20028;-70
2022/04/27 11:48:53;;;;;;;3.53;1.77;;;;;;;;;;10508288;28;20052;-72
2022/04/27 11:53:54;;;;;;;11.75;1.90;;;;;;;;;;10508295;28;20028;-72
2022/04/27 11:59:05;;;;;;;7.18;1.95;;;;;;;;;;10525748;28;20024;-71
2022/04/27 12:04:06;;;;;;;2.97;2.25;;;;;;;;;;10511565;28;20101;-71
2022/04/27 12:09:06;;;;;;;5.20;1.52;;;;;;;;;;10534041;28;20053;-72
2022/04/27 12:14:07;;;;;;;7.65;1.83;;;;;;;;;;10527975;28;20667;-72
2022/04/27 12:19:07;;;;;;;6.18;2.58;;;;;;;;;;10550496;28;20489;-72
2022/04/27 12:24:17;;;;;;;8.85;1.67;;;;;;;;;;10520024;28;20111;-72
2022/04/27 12:29:17;;;;;;;7.07;1.75;;;;;;;;;;10519340;28;20024;-75
2022/04/27 12:39:40;;;;;;;5.20;1.58;;;;;;;;;;10574821;28;20036;-71
2022/04/27 12:44:41;;;;;;;8.27;1.77;;;;;;;;;;10576909;27;20027;-71
2022/04/27 12:49:43;;;;;;;2.67;1.42;;;;;;;;;;10578117;27;20058;-74
2022/04/27 12:54:44;;;;;;;11.93;3.20;;;;;;;;;;10590403;27;20031;-72
2022/04/27 12:59:58;;;;;;;5.65;1.73;;;;;;;;;;10578559;27;20016;-72
2022/04/27 13:04:59;;;;;;;6.05;2.15;;;;;;;;;;10577072;27;20027;-75
2022/04/27 13:15:18;;;;;;;16.90;3.88;;;;;;;;;;10582069;27;20027;-75
2022/04/27 13:20:19;;;;;;;5.70;1.70;;;;;;;;;;10577603;27;20424;-73
2022/04/27 13:25:19;;;;;;;9.03;2.10;;;;;;;;;;10574088;27;20346;-76
2022/04/27 13:30:20;;;;;;;11.27;3.20;;;;;;;;;;10575017;27;20065;-76
2022/04/27 13:35:20;;;;;;;5.13;1.90;;;;;;;;;;10547929;27;20413;-72
2022/04/27 13:40:21;;;;;;;4.63;1.88;;;;;;;;;;10567448;27;20027;-76
2022/04/27 13:45:21;;;;;;;9.27;1.88;;;;;;;;;;10560085;27;20047;-76
2022/04/27 13:50:21;;;;;;;5.83;2.20;;;;;;;;;;10560018;27;20436;-73
2022/04/27 13:55:22;;;;;;;5.10;2.33;;;;;;;;;;10561177;27;20469;-75
2022/04/27 14:00:23;;;;;;;3.55;2.10;;;;;;;;;;10592300;27;20269;-75
2022/04/27 14:05:23;;;;;;;5.20;2.72;;;;;;;;;;10566367;27;20454;-72
2022/04/27 14:10:23;;;;;;;8.47;2.10;;;;;;;;;;10577229;27;20478;-75
2022/04/27 14:15:24;;;;;;;4.78;1.92;;;;;;;;;;10572452;27;20030;-72
2022/04/27 14:20:24;;;;;;;6.93;2.07;;;;;;;;;;10571281;27;20027;-74
2022/04/27 14:25:24;;;;;;;5.50;2.50;;;;;;;;;;10559716;27;20111;-69
2022/04/27 14:30:25;;;;;;;9.40;2.77;;;;;;;;;;10551479;27;20019;-74
2022/04/27 14:35:25;;;;;;;5.30;2.65;;;;;;;;;;10523251;28;20354;-73
2022/04/27 14:40:25;;;;;;;10.70;3.90;;;;;;;;;;10536216;28;20027;-77
2022/04/27 14:45:26;;;;;;;4.20;2.20;;;;;;;;;;10527773;28;20510;-75
2022/04/27 14:50:26;;;;;;;4.30;2.08;;;;;;;;;;10562180;28;20027;-71
2022/04/27 14:55:26;;;;;;;4.95;1.98;;;;;;;;;;10549151;28;20028;-77
2022/04/27 15:00:27;;;;;;;13.43;3.00;;;;;;;;;;10552297;28;20031;-74
2022/04/27 15:05:27;;;;;;;7.53;2.63;;;;;;;;;;10567869;28;20022;-70
2022/04/27 15:10:28;;;;;;;3.73;2.60;;;;;;;;;;10547848;28;20027;-70
2022/04/27 15:15:28;;;;;;;7.03;2.47;;;;;;;;;;10520543;28;20054;-72
2022/04/27 15:25:48;;;;;;;2.67;1.83;;;;;;;;;;10485478;28;20024;-75
2022/04/27 15:30:49;;;;;;;3.90;1.90;;;;;;;;;;10483604;28;20865;-70
2022/04/27 15:35:49;;;;;;;7.78;2.40;;;;;;;;;;10483588;28;20026;-70
2022/04/27 15:40:49;;;;;;;6.57;2.03;;;;;;;;;;10484165;28;20158;-70
2022/04/27 15:45:50;;;;;;;5.30;2.57;;;;;;;;;;10466748;28;20079;-71
2022/04/27 15:50:50;;;;;;;7.18;2.15;;;;;;;;;;10496100;28;20028;-69
2022/04/27 15:55:51;;;;;;;7.73;2.60;;;;;;;;;;10533599;28;20035;-71
2022/04/27 16:00:51;;;;;;;6.38;2.63;;;;;;;;;;10516618;28;20024;-72
2022/04/27 16:05:52;;;;;;;7.65;3.42;;;;;;;;;;10514603;28;20024;-69
2022/04/27 16:10:52;;;;;;;6.82;4.35;;;;;;;;;;10531805;28;20110;-74
2022/04/27 16:15:52;;;;;;;12.65;5.15;;;;;;;;;;10517564;28;20016;-71
2022/04/27 16:26:12;;;;;;;11.43;6.93;;;;;;;;;;10550057;28;20024;-73
2022/04/27 16:31:12;;;;;;;16.93;6.13;;;;;;;;;;10557317;28;20406;-69
2022/04/27 16:36:12;;;;;;;8.73;5.55;;;;;;;;;;10555723;28;20021;-73
2022/04/27 16:41:14;;;;;;;15.47;6.13;;;;;;;;;;10539122;28;20474;-72
2022/04/27 16:46:14;;;;;;;13.70;5.78;;;;;;;;;;10540012;28;20128;-73
2022/04/27 16:51:15;;;;;;;13.20;4.67;;;;;;;;;;10538148;28;20119;-73
2022/04/27 16:56:15;;;;;;;13.70;3.97;;;;;;;;;;10536450;28;20503;-70
2022/04/27 17:01:18;;;;;;;9.68;4.03;;;;;;;;;;10552516;28;20032;-73
2022/04/27 17:06:19;;;;;;;14.73;4.07;;;;;;;;;;10554054;28;20039;-72
2022/04/27 17:11:19;;;;;;;7.75;3.83;;;;;;;;;;10508732;28;20640;-71
2022/04/27 17:16:19;;;;;;;12.37;3.23;;;;;;;;;;10531018;28;20038;-70
2022/04/27 17:21:20;;;;;;;11.52;3.53;;;;;;;;;;10544399;28;20043;-70
2022/04/27 17:31:40;;;;;;;6.57;3.83;;;;;;;;;;10550777;28;20050;-72
2022/04/27 17:36:40;;;;;;;15.00;4.47;;;;;;;;;;10514305;28;20032;-77
2022/04/27 17:41:41;;;;;;;16.98;3.80;;;;;;;;;;10535217;28;20016;-77
2022/04/27 17:46:41;;;;;;;12.60;3.70;;;;;;;;;;10540151;28;20059;-69
2022/04/27 17:51:41;;;;;;;11.47;2.77;;;;;;;;;;10534635;28;20032;-71
2022/04/27 17:56:42;;;;;;;10.00;3.77;;;;;;;;;;10543979;28;20578;-73
2022/04/27 18:01:42;;;;;;;5.85;3.30;;;;;;;;;;10547817;28;20036;-75
2022/04/27 18:06:42;;;;;;;8.30;3.42;;;;;;;;;;10531660;28;20418;-75
2022/04/27 18:11:42;;;;;;;6.13;3.22;;;;;;;;;;10526652;28;20118;-74
2022/04/27 18:16:43;;;;;;;7.63;4.70;;;;;;;;;;10525135;28;20024;-70
2022/04/27 18:21:46;;;;;;;16.93;3.93;;;;;;;;;;10541254;28;20096;-74
2022/04/27 18:26:46;;;;;;;11.10;4.32;;;;;;;;;;10514289;28;20024;-70
2022/04/27 18:31:47;;;;;;;10.05;4.00;;;;;;;;;;10540420;28;20035;-72
2022/04/27 18:36:47;;;;;;;9.10;4.20;;;;;;;;;;10535432;28;20024;-70
2022/04/27 18:41:47;;;;;;;11.60;4.40;;;;;;;;;;10537578;28;20645;-71
2022/04/27 18:52:07;;;;;;;12.52;3.88;;;;;;;;;;10537810;28;20028;-70
2022/04/27 18:57:08;;;;;;;9.25;3.78;;;;;;;;;;10528095;28;20024;-76
2022/04/27 19:02:09;;;;;;;13.25;4.13;;;;;;;;;;10529600;28;20027;-71
2022/04/27 19:07:10;;;;;;;10.95;4.57;;;;;;;;;;10510559;28;20028;-71
2022/04/27 19:12:10;;;;;;;15.50;4.00;;;;;;;;;;10499866;28;20083;-69
2022/04/27 19:17:11;;;;;;;14.82;4.75;;;;;;;;;;10513271;28;20027;-74
2022/04/27 19:22:11;;;;;;;15.15;4.10;;;;;;;;;;10530367;28;20035;-73
2022/04/27 19:27:13;;;;;;;12.05;4.88;;;;;;;;;;10527199;28;20065;-74
2022/04/27 19:32:14;;;;;;;14.00;5.90;;;;;;;;;;10511483;28;20031;-84
2022/04/27 19:37:15;;;;;;;14.98;5.50;;;;;;;;;;10505346;28;22133;-73
2022/04/27 19:42:15;;;;;;;17.00;6.80;;;;;;;;;;10522613;28;20020;-73
2022/04/27 19:47:17;;;;;;;11.50;6.33;;;;;;;;;;10535832;28;20647;-71
2022/04/27 19:52:52;;;;;;;12.52;6.35;;;;;;;;;;10508875;28;20281;-74
2022/04/27 19:57:38;;;;;;;16.95;6.10;;;;;;;;;;10535615;28;20109;-76
2022/04/27 20:02:39;;;;;;;18.30;5.55;;;;;;;;;;10539822;28;20031;-77
2022/04/27 20:07:40;;;;;;;10.93;4.63;;;;;;;;;;10525419;28;20638;-75
2022/04/27 20:12:40;;;;;;;14.52;5.50;;;;;;;;;;10545543;28;20036;-78
2022/04/27 20:17:41;;;;;;;17.70;5.18;;;;;;;;;;10524250;28;20032;-76
2022/04/27 20:22:41;;;;;;;9.57;4.47;;;;;;;;;;10543751;28;20080;-72
2022/04/27 20:27:44;;;;;;;13.70;4.90;;;;;;;;;;10520626;28;20031;-73
2022/04/27 20:32:44;;;;;;;12.68;4.55;;;;;;;;;;10526943;28;20036;-72
2022/04/27 20:37:44;;;;;;;13.45;4.88;;;;;;;;;;10556313;28;20040;-73
2022/04/27 20:42:45;;;;;;;10.40;3.53;;;;;;;;;;10534425;28;20395;-73
2022/04/27 20:47:48;;;;;;;8.18;4.13;;;;;;;;;;10533109;28;20069;-76
2022/04/27 20:52:48;;;;;;;10.43;4.20;;;;;;;;;;10530890;28;20032;-73
2022/04/27 20:57:49;;;;;;;12.40;3.95;;;;;;;;;;10531429;28;20479;-76
2022/04/27 21:02:49;;;;;;;9.60;4.40;;;;;;;;;;10540786;28;20456;-72
2022/04/27 21:07:50;;;;;;;11.68;4.72;;;;;;;;;;10553864;28;20629;-76
2022/04/27 21:12:50;;;;;;;10.57;4.03;;;;;;;;;;10541194;28;20556;-77
2022/04/27 21:17:51;;;;;;;8.95;3.70;;;;;;;;;;10537241;28;20040;-72
2022/04/27 21:22:52;;;;;;;5.97;4.40;;;;;;;;;;10535997;28;20114;-76
2022/04/27 21:27:53;;;;;;;10.35;3.75;;;;;;;;;;10532379;28;20398;-71
2022/04/27 21:32:54;;;;;;;6.32;2.97;;;;;;;;;;10530481;28;20552;-77
2022/04/27 21:37:54;;;;;;;8.27;3.33;;;;;;;;;;10533647;28;20024;-73
2022/04/27 21:42:55;;;;;;;15.18;3.55;;;;;;;;;;10540034;28;20024;-78
2022/04/27 21:47:56;;;;;;;7.93;3.08;;;;;;;;;;10547719;28;20495;-74
2022/04/27 21:52:56;;;;;;;7.90;3.25;;;;;;;;;;10507570;28;20034;-78
2022/04/27 21:58:00;;;;;;;6.80;2.80;;;;;;;;;;10529857;28;20039;-73
2022/04/27 22:03:00;;;;;;;6.03;2.70;;;;;;;;;;10512178;28;20032;-73
2022/04/27 22:08:01;;;;;;;7.43;3.05;;;;;;;;;;10535208;28;20071;-77
2022/04/27 22:13:01;;;;;;;6.45;3.30;;;;;;;;;;10529700;28;20019;-72
2022/04/27 22:18:02;;;;;;;8.13;3.35;;;;;;;;;;10530901;28;20020;-76
2022/04/27 22:23:02;;;;;;;7.93;3.30;;;;;;;;;;10505162;28;20032;-76
2022/04/27 22:28:02;;;;;;;5.22;3.15;;;;;;;;;;10509298;28;20031;-73
2022/04/27 22:33:03;;;;;;;10.07;3.13;;;;;;;;;;10509397;28;20068;-73
2022/04/27 22:38:03;;;;;;;7.88;2.78;;;;;;;;;;10527784;28;20028;-73
2022/04/27 22:43:04;;;;;;;4.45;2.85;;;;;;;;;;10510427;28;20027;-73
2022/04/27 22:48:04;;;;;;;6.43;2.95;;;;;;;;;;10510052;28;20051;-77
2022/04/27 22:53:04;;;;;;;4.57;2.53;;;;;;;;;;10527283;28;20024;-73
2022/04/27 22:58:05;;;;;;;5.53;3.53;;;;;;;;;;10509188;28;20262;-73
2022/04/27 23:03:05;;;;;;;8.20;4.00;;;;;;;;;;10509618;28;20024;-71
2022/04/27 23:13:25;;;;;;;3.88;2.75;;;;;;;;;;10486073;28;20028;-79
2022/04/27 23:18:25;;;;;;;6.97;3.20;;;;;;;;;;10484575;28;20016;-80
2022/04/27 23:23:26;;;;;;;7.20;3.40;;;;;;;;;;10485773;28;20024;-77
2022/04/27 23:28:26;;;;;;;5.00;3.15;;;;;;;;;;10485072;28;20024;-74
2022/04/27 23:33:26;;;;;;;4.90;3.03;;;;;;;;;;10485633;28;20020;-73
2022/04/27 23:38:27;;;;;;;5.73;3.57;;;;;;;;;;10485447;28;20019;-77
2022/04/27 23:43:27;;;;;;;7.63;2.92;;;;;;;;;;10484546;28;20023;-77
2022/04/27 23:48:27;;;;;;;4.37;2.63;;;;;;;;;;10484181;28;20049;-75
2022/04/27 23:53:28;;;;;;;6.43;3.70;;;;;;;;;;10483537;28;20029;-73
2022/04/27 23:58:28;;;;;;;5.83;2.63;;;;;;;;;;10485319;28;20033;-76
